Time,TemperatureF,DewpointF,PressureIn,WindDirection,WindDirectionDegrees,WindSpeedMPH,WindSpeedGustMPH,Humidity,HourlyPrecipIn,Conditions,Clouds,dailyrainin,SolarRadiationWatts/m^2,SoftwareType,DateUTC
2013-07-03 00:00:00,58.3,57.2,30.03,East,90,0.0,2.0,96,0.00,CLR,,0.00,0.0,WeatherDisplay:10.37,2013-07-03 04:00:00,
2013-07-03 00:05:00,58.5,57.4,30.02,East,90,0.0,2.0,96,0.00,CLR,,0.00,0.0,WeatherDisplay:10.37,2013-07-03 04:05:00,
2013-07-03 00:10:00,58.5,57.4,30.02,East,90,0.0,2.0,96,0.00,CLR,,0.00,0.0,WeatherDisplay:10.37,2013-07-03 04:10:00,
2013-07-03 00:15:00,58.5,57.1,30.03,East,90,0.0,3.0,95,0.00,CLR,,0.00,0.0,WeatherDisplay:10.37,2013-07-03 04:15:00,
2013-07-03 00:20:00,58.5,57.1,30.03,East,90,0.0,3.0,95,0.00,CLR,,0.00,0.0,WeatherDisplay:10.37,2013-07-03 04:20:00,
2013-07-03 00:25:00,58.3,56.9,30.03,East,90,0.0,2.0,95,0.00,CLR,,0.00,0.0,WeatherDisplay:10.37,2013-07-03 04:25:00,
2013-07-03 00:30:00,58.3,56.9,30.03,East,90,0.0,2.0,95,0.00,CLR,,0.00,0.0,WeatherDisplay:10.37,2013-07-03 04:30:00,
2013-07-03 00:35:00,58.2,56.8,30.03,East,90,1.0,4.0,95,0.00,CLR,,0.00,0.0,WeatherDisplay:10.37,2013-07-03 04:35:00,
2013-07-03 00:40:00,58.2,56.8,30.03,East,90,1.0,4.0,95,0.00,CLR,,0.00,0.0,WeatherDisplay:10.37,2013-07-03 04:40:00,
2013-07-03 00:45:00,58.1,56.7,30.03,East,90,1.0,5.0,95,0.00,CLR,,0.00,0.0,WeatherDisplay:10.37,2013-07-03 04:45:00,
2013-07-03 00:50:00,58.1,56.7,30.03,East,90,1.0,5.0,95,0.00,CLR,,0.00,0.0,WeatherDisplay:10.37,2013-07-03 04:50:00,
2013-07-03 00:55:00,58.0,56.6,30.03,East,90,1.0,2.0,95,0.00,CLR,,0.00,0.0,WeatherDisplay:10.37,2013-07-03 04:55:00,
2013-07-03 01:00:00,58.0,56.6,30.03,East,90,1.0,2.0,95,0.00,CLR,,0.00,0.0,WeatherDisplay:10.37,2013-07-03 05:00:00,
2013-07-03 01:05:00,58.1,56.7,30.03,East,90,1.0,2.0,95,0.00,CLR,,0.00,0.0,WeatherDisplay:10.37,2013-07-03 05:05:00,
2013-07-03 01:10:00,58.1,56.7,30.03,East,90,1.0,2.0,95,0.00,CLR,,0.00,0.0,WeatherDisplay:10.37,2013-07-03 05:10:00,
2013-07-03 01:15:00,58.1,56.7,30.03,East,90,1.0,2.0,95,0.00,CLR,,0.00,1.0,WeatherDisplay:10.37,2013-07-03 05:15:00,
2013-07-03 01:20:00,58.1,56.7,30.03,East,90,1.0,2.0,95,0.00,CLR,,0.00,1.0,WeatherDisplay:10.37,2013-07-03 05:20:00,
2013-07-03 01:25:00,58.1,57.0,30.04,East,90,0.0,2.0,96,0.00,CLR,,0.00,8.0,WeatherDisplay:10.37,2013-07-03 05:25:00,
2013-07-03 01:30:00,58.1,57.0,30.04,East,90,0.0,2.0,96,0.00,CLR,,0.00,8.0,WeatherDisplay:10.37,2013-07-03 05:30:00,
2013-07-03 01:35:00,58.1,57.0,30.04,East,90,0.0,0.0,96,0.00,CLR,,0.00,13.0,WeatherDisplay:10.37,2013-07-03 05:35:00,
2013-07-03 01:40:00,58.1,57.0,30.04,East,90,0.0,0.0,96,0.00,CLR,,0.00,13.0,WeatherDisplay:10.37,2013-07-03 05:40:00,
2013-07-03 01:45:00,58.2,57.1,30.05,East,90,0.0,0.0,96,0.00,CLR,,0.00,18.0,WeatherDisplay:10.37,2013-07-03 05:45:00,
2013-07-03 01:50:00,58.2,57.1,30.05,East,90,0.0,0.0,96,0.00,CLR,,0.00,18.0,WeatherDisplay:10.37,2013-07-03 05:50:00,
2013-07-03 01:55:00,58.5,57.4,30.05,East,90,0.0,2.0,96,0.00,CLR,,0.00,23.0,WeatherDisplay:10.37,2013-07-03 05:55:00,
2013-07-03 02:00:00,58.5,57.4,30.05,East,90,0.0,2.0,96,0.00,CLR,,0.00,23.0,WeatherDisplay:10.37,2013-07-03 06:00:00,
2013-07-03 02:05:00,58.8,57.7,30.05,East,90,0.0,0.0,96,0.00,CLR,,0.00,30.0,WeatherDisplay:10.37,2013-07-03 06:05:00,
2013-07-03 02:10:00,58.8,57.7,30.05,East,90,0.0,0.0,96,0.00,CLR,,0.00,30.0,WeatherDisplay:10.37,2013-07-03 06:10:00,
2013-07-03 02:15:00,59.3,58.2,30.05,East,90,0.0,0.0,96,0.00,CLR,,0.00,55.0,WeatherDisplay:10.37,2013-07-03 06:15:00,
2013-07-03 02:20:00,59.3,58.2,30.05,East,90,0.0,0.0,96,0.00,CLR,,0.00,55.0,WeatherDisplay:10.37,2013-07-03 06:20:00,
2013-07-03 02:25:00,59.9,58.8,30.05,East,90,0.0,1.0,96,0.00,CLR,,0.00,63.0,WeatherDisplay:10.37,2013-07-03 06:25:00,
2013-07-03 02:30:00,59.9,58.8,30.05,East,90,0.0,1.0,96,0.00,CLR,,0.00,63.0,WeatherDisplay:10.37,2013-07-03 06:30:00,
2013-07-03 02:35:00,60.4,59.0,30.05,East,90,0.0,1.0,95,0.00,CLR,,0.00,58.0,WeatherDisplay:10.37,2013-07-03 06:35:00,
2013-07-03 02:40:00,60.4,59.0,30.05,East,90,0.0,1.0,95,0.00,CLR,,0.00,58.0,WeatherDisplay:10.37,2013-07-03 06:40:00,
2013-07-03 02:45:00,61.1,59.7,30.05,East,90,0.0,2.0,95,0.00,CLR,,0.00,55.0,WeatherDisplay:10.37,2013-07-03 06:45:00,
2013-07-03 02:50:00,61.1,59.7,30.05,East,90,0.0,2.0,95,0.00,CLR,,0.00,55.0,WeatherDisplay:10.37,2013-07-03 06:50:00,
2013-07-03 02:55:00,61.7,60.0,30.05,East,90,0.0,2.0,94,0.00,CLR,,0.00,53.0,WeatherDisplay:10.37,2013-07-03 06:55:00,
2013-07-03 03:00:00,61.7,60.0,30.05,East,90,0.0,2.0,94,0.00,OVC,,0.00,53.0,WeatherDisplay:10.37,2013-07-03 07:00:00,
2013-07-03 03:05:00,62.3,60.2,30.05,East,90,0.0,2.0,93,0.00,OVC,,0.00,59.0,WeatherDisplay:10.37,2013-07-03 07:05:00,
2013-07-03 03:10:00,62.3,60.2,30.05,East,90,0.0,2.0,93,0.00,OVC,,0.00,59.0,WeatherDisplay:10.37,2013-07-03 07:10:00,
2013-07-03 03:15:00,62.8,60.7,30.05,East,90,0.0,1.0,93,0.00,OVC,,0.00,70.0,WeatherDisplay:10.37,2013-07-03 07:15:00,
2013-07-03 03:20:00,62.8,60.7,30.05,East,90,0.0,1.0,93,0.00,OVC,,0.00,70.0,WeatherDisplay:10.37,2013-07-03 07:20:00,
2013-07-03 03:25:00,63.4,61.3,30.06,East,90,0.0,0.0,93,0.00,OVC,,0.00,75.0,WeatherDisplay:10.37,2013-07-03 07:25:00,
2013-07-03 03:30:00,63.4,61.3,30.06,East,90,0.0,0.0,93,0.00,OVC,,0.00,75.0,WeatherDisplay:10.37,2013-07-03 07:30:00,
2013-07-03 03:35:00,64.3,61.9,30.06,East,90,0.0,0.0,92,0.00,OVC,,0.00,70.0,WeatherDisplay:10.37,2013-07-03 07:35:00,
2013-07-03 03:40:00,64.3,61.9,30.06,East,90,0.0,0.0,92,0.00,OVC,,0.00,70.0,WeatherDisplay:10.37,2013-07-03 07:40:00,
2013-07-03 03:45:00,65.2,62.8,30.05,East,90,0.0,2.0,92,0.00,OVC,,0.00,76.0,WeatherDisplay:10.37,2013-07-03 07:45:00,
2013-07-03 03:50:00,65.2,62.8,30.05,East,90,0.0,2.0,92,0.00,OVC,,0.00,76.0,WeatherDisplay:10.37,2013-07-03 07:50:00,
2013-07-03 03:55:00,66.2,63.5,30.06,East,90,0.0,2.0,91,0.00,OVC,,0.00,86.0,WeatherDisplay:10.37,2013-07-03 07:55:00,
2013-07-03 04:00:00,66.2,63.5,30.06,East,90,0.0,2.0,91,0.00,OVC,,0.00,86.0,WeatherDisplay:10.37,2013-07-03 08:00:00,
2013-07-03 04:05:00,67.2,64.5,30.06,East,90,0.0,1.0,91,0.00,OVC,,0.00,94.0,WeatherDisplay:10.37,2013-07-03 08:05:00,
2013-07-03 04:10:00,67.2,64.5,30.06,East,90,0.0,1.0,91,0.00,OVC,,0.00,94.0,WeatherDisplay:10.37,2013-07-03 08:10:00,
2013-07-03 04:15:00,68.5,65.4,30.07,SSE,168,2.0,4.0,90,0.00,OVC,,0.00,266.0,WeatherDisplay:10.37,2013-07-03 08:15:00,
2013-07-03 04:20:00,68.5,65.4,30.07,SSW,202,2.0,4.0,90,0.00,OVC,,0.00,266.0,WeatherDisplay:10.37,2013-07-03 08:20:00,
2013-07-03 04:25:00,70.1,66.4,30.07,SSW,202,0.0,3.0,88,0.00,OVC,,0.00,408.0,WeatherDisplay:10.37,2013-07-03 08:25:00,
2013-07-03 04:30:00,70.1,66.4,30.07,SSW,202,0.0,3.0,88,0.00,OVC,,0.00,408.0,WeatherDisplay:10.37,2013-07-03 08:30:00,
2013-07-03 04:35:00,71.6,67.2,30.07,SSW,192,1.0,4.0,86,0.00,OVC,,0.00,335.0,WeatherDisplay:10.37,2013-07-03 08:35:00,
2013-07-03 04:40:00,71.6,67.2,30.07,South,180,1.0,4.0,86,0.00,OVC,,0.00,335.0,WeatherDisplay:10.37,2013-07-03 08:40:00,
2013-07-03 09:38:00,72.3,67.5,30.07,SSE,159,3.5,3.5,85,0.00,OVC,,0.00,223.0,WeatherDisplay:10.37,2013-07-03 13:38:00,
2013-07-03 09:39:00,72.5,67.7,30.07,SSE,159,3.5,0.0,85,0.00,OVC,,0.00,462.0,WeatherDisplay:10.37,2013-07-03 13:39:00,
2013-07-03 09:40:00,72.5,67.7,30.07,SSE,159,3.5,0.0,85,0.00,OVC,,0.00,462.0,WeatherDisplay:10.37,2013-07-03 13:40:00,
2013-07-03 09:45:00,73.1,68.0,30.07,SE,139,3.5,3.5,84,0.00,OVC,,0.00,211.0,WeatherDisplay:10.37,2013-07-03 13:45:00,
2013-07-03 09:50:00,73.5,68.0,30.07,SE,146,3.0,3.0,83,0.00,OVC,,0.00,482.0,WeatherDisplay:10.37,2013-07-03 13:50:00,
2013-07-03 09:55:00,73.9,68.1,30.08,South,178,0.0,0.0,82,0.00,OVC,,0.00,329.0,WeatherDisplay:10.37,2013-07-03 13:55:00,
2013-07-03 10:01:00,74.2,68.3,30.07,SSE,155,3.5,3.5,82,0.00,OVC,,0.00,288.0,WeatherDisplay:10.37,2013-07-03 14:01:00,
2013-07-03 10:07:00,74.6,68.7,30.07,SE,130,2.3,2.3,82,0.00,OVC,,0.00,550.0,WeatherDisplay:10.37,2013-07-03 14:07:00,
2013-07-03 10:10:00,74.9,68.7,30.07,East,95,3.5,3.5,81,0.00,OVC,,0.00,575.0,WeatherDisplay:10.37,2013-07-03 14:10:00,
2013-07-03 10:15:00,75.6,68.6,30.07,SE,130,1.1,1.1,79,0.00,OVC,,0.00,274.0,WeatherDisplay:10.37,2013-07-03 14:15:00,
2013-07-03 10:18:00,75.7,68.7,30.07,SSE,148,5.8,5.8,79,0.00,OVC,,0.00,496.0,WeatherDisplay:10.37,2013-07-03 14:18:00,
2013-07-03 10:23:00,75.8,68.8,30.07,SSE,163,3.5,3.5,79,0.00,OVC,,0.00,327.0,WeatherDisplay:10.37,2013-07-03 14:23:00,
2013-07-03 10:28:00,76.1,69.5,30.07,SSW,198,6.9,6.9,80,0.00,OVC,,0.00,613.0,WeatherDisplay:10.37,2013-07-03 14:28:00,
2013-07-03 10:31:00,76.2,68.8,30.07,SE,126,3.5,3.5,78,0.00,OVC,,0.00,642.0,WeatherDisplay:10.37,2013-07-03 14:31:00,
2013-07-03 10:36:00,76.4,69.0,30.07,SW,222,9.2,9.2,78,0.00,OVC,,0.00,246.0,WeatherDisplay:10.37,2013-07-03 14:36:00,
2013-07-03 10:39:00,76.3,68.9,30.07,South,177,9.2,9.2,78,0.00,OVC,,0.00,339.0,WeatherDisplay:10.37,2013-07-03 14:39:00,
2013-07-03 10:42:00,76.0,68.6,30.07,SSW,195,9.2,9.2,78,0.00,OVC,,0.00,283.0,WeatherDisplay:10.37,2013-07-03 14:42:00,
2013-07-03 10:47:00,75.5,68.5,30.07,South,184,4.6,4.6,79,0.00,OVC,,0.00,483.0,WeatherDisplay:10.37,2013-07-03 14:47:00,
2013-07-03 10:51:00,75.4,69.2,30.06,SSW,202,8.1,8.1,81,0.00,OVC,,0.00,283.0,WeatherDisplay:10.37,2013-07-03 14:51:00,
2013-07-03 10:56:00,75.4,68.8,30.06,South,190,5.0,5.0,80,0.00,OVC,,0.00,334.0,WeatherDisplay:10.37,2013-07-03 14:56:00,
2013-07-03 10:58:00,75.4,68.8,30.07,SSW,213,6.9,6.9,80,0.00,OVC,,0.00,315.0,WeatherDisplay:10.37,2013-07-03 14:58:00,
2013-07-03 11:03:00,75.8,69.2,30.07,South,175,8.1,8.1,80,0.00,CLR,,0.00,348.0,WeatherDisplay:10.37,2013-07-03 15:03:00,
2013-07-03 11:09:00,76.3,70.0,30.06,SSW,200,6.9,6.9,81,0.00,CLR,,0.00,770.0,WeatherDisplay:10.37,2013-07-03 15:09:00,
2013-07-03 11:14:00,76.9,70.3,30.06,SSE,155,4.6,4.6,80,0.00,CLR,,0.00,770.0,WeatherDisplay:10.37,2013-07-03 15:14:00,
2013-07-03 11:15:00,76.9,70.6,30.06,SSE,154,2.3,2.3,81,0.00,CLR,,0.00,872.0,WeatherDisplay:10.37,2013-07-03 15:15:00,
2013-07-03 11:20:00,77.1,70.1,30.06,SW,219,5.8,5.8,79,0.00,CLR,,0.00,791.0,WeatherDisplay:10.37,2013-07-03 15:20:00,
2013-07-03 11:25:00,77.5,69.7,30.07,SSW,194,8.1,8.1,77,0.00,CLR,,0.00,842.0,WeatherDisplay:10.37,2013-07-03 15:25:00,
2013-07-03 11:28:00,77.6,69.8,30.06,SSW,207,9.2,9.2,77,0.00,CLR,,0.00,561.0,WeatherDisplay:10.37,2013-07-03 15:28:00,
2013-07-03 11:33:00,77.7,69.9,30.07,SW,215,4.6,4.6,77,0.00,CLR,,0.00,867.0,WeatherDisplay:10.37,2013-07-03 15:33:00,
2013-07-03 11:38:00,78.0,69.8,30.07,SSW,211,6.9,6.9,76,0.00,CLR,,0.00,831.0,WeatherDisplay:10.37,2013-07-03 15:38:00,
2013-07-03 11:42:00,78.3,70.1,30.07,SSW,196,8.1,8.1,76,0.00,CLR,,0.00,450.0,WeatherDisplay:10.37,2013-07-03 15:42:00,
2013-07-03 11:47:00,78.4,70.2,30.07,SSW,197,10.4,10.4,76,0.00,CLR,,0.00,900.0,WeatherDisplay:10.37,2013-07-03 15:47:00,
2013-07-03 11:52:00,78.4,69.4,30.07,SW,225,4.6,4.6,74,0.00,CLR,,0.00,229.0,WeatherDisplay:10.37,2013-07-03 15:52:00,
2013-07-03 11:57:00,78.7,70.9,30.07,SSW,201,5.8,5.8,77,0.00,CLR,,0.00,229.0,WeatherDisplay:10.37,2013-07-03 15:57:00,
2013-07-03 12:03:00,78.2,69.6,30.07,SW,216,4.6,4.6,75,0.00,CLR,,0.00,480.0,WeatherDisplay:10.37,2013-07-03 16:03:00,
2013-07-03 12:08:00,78.0,69.0,30.07,SW,224,4.6,4.6,74,0.00,CLR,,0.00,188.0,WeatherDisplay:10.37,2013-07-03 16:08:00,
2013-07-03 12:13:00,77.8,69.2,30.07,WSW,240,5.8,5.8,75,0.00,CLR,,0.00,171.0,WeatherDisplay:10.37,2013-07-03 16:13:00,
2013-07-03 12:19:00,77.4,69.2,30.06,SW,223,6.9,6.9,76,0.00,CLR,,0.00,165.0,WeatherDisplay:10.37,2013-07-03 16:19:00,
2013-07-03 12:25:00,77.2,69.4,30.06,SSW,205,5.8,5.8,77,0.00,CLR,,0.00,171.0,WeatherDisplay:10.37,2013-07-03 16:25:00,
2013-07-03 12:30:00,77.0,68.5,30.06,SSW,209,6.9,6.9,75,0.00,CLR,,0.00,204.0,WeatherDisplay:10.37,2013-07-03 16:30:00,
2013-07-03 12:35:00,77.4,69.2,30.06,SSW,203,6.9,6.9,76,0.00,CLR,,0.00,954.0,WeatherDisplay:10.37,2013-07-03 16:35:00,
2013-07-03 12:40:00,78.2,69.6,30.06,SW,229,9.0,9.0,75,0.00,CLR,,0.00,1053.0,WeatherDisplay:10.37,2013-07-03 16:40:00,
2013-07-03 12:45:00,78.7,69.3,30.06,SW,233,8.1,8.1,73,0.00,CLR,,0.00,229.0,WeatherDisplay:10.37,2013-07-03 16:45:00,
2013-07-03 12:51:00,78.3,68.1,30.06,SSW,199,9.2,9.2,71,0.00,CLR,,0.00,243.0,WeatherDisplay:10.37,2013-07-03 16:51:00,
2013-07-03 12:57:00,77.7,68.7,30.06,SW,217,8.1,8.1,74,0.00,CLR,,0.00,274.0,WeatherDisplay:10.37,2013-07-03 16:57:00,
2013-07-03 13:02:00,78.2,68.8,30.06,NW,319,8.1,8.1,73,0.00,CLR,,0.00,1035.0,WeatherDisplay:10.37,2013-07-03 17:02:00,
2013-07-03 13:07:00,78.1,67.9,30.06,SW,227,10.4,10.4,71,0.00,SCT,,0.00,190.0,WeatherDisplay:10.37,2013-07-03 17:07:00,
2013-07-03 13:13:00,78.5,69.9,30.06,SSE,159,4.0,4.0,75,0.00,CLR,,0.00,1007.0,WeatherDisplay:10.37,2013-07-03 17:13:00,
2013-07-03 13:18:00,79.3,68.7,30.06,SW,217,8.1,8.1,70,0.00,CLR,,0.00,1023.0,WeatherDisplay:10.37,2013-07-03 17:18:00,
2013-07-03 13:24:00,79.7,68.6,30.05,SSW,200,8.1,8.1,69,0.00,CLR,,0.00,1048.0,WeatherDisplay:10.37,2013-07-03 17:24:00,
2013-07-03 13:29:00,80.2,68.2,30.05,South,181,6.0,6.0,67,0.00,CLR,,0.00,1021.0,WeatherDisplay:10.37,2013-07-03 17:29:00,
2013-07-03 13:34:00,80.5,68.1,30.05,WSW,252,10.4,10.4,66,0.00,CLR,,0.00,1028.0,WeatherDisplay:10.37,2013-07-03 17:34:00,
2013-07-03 13:39:00,80.5,68.1,30.05,SSW,212,11.5,11.5,66,0.00,CLR,,0.00,188.0,WeatherDisplay:10.37,2013-07-03 17:39:00,
2013-07-03 13:44:00,80.0,67.2,30.06,South,178,8.1,8.1,65,0.00,CLR,,0.00,1088.0,WeatherDisplay:10.37,2013-07-03 17:44:00,
2013-07-03 13:49:00,80.1,67.3,30.06,SSW,198,11.5,11.5,65,0.00,SCT,,0.00,223.0,WeatherDisplay:10.37,2013-07-03 17:49:00,
2013-07-03 13:54:00,80.5,69.4,30.06,SSW,195,8.1,8.1,69,0.00,CLR,,0.00,1007.0,WeatherDisplay:10.37,2013-07-03 17:54:00,
2013-07-03 13:59:00,80.9,68.0,30.06,SW,225,6.9,6.9,65,0.00,CLR,,0.00,986.0,WeatherDisplay:10.37,2013-07-03 17:59:00,
2013-07-03 14:05:00,81.0,68.6,30.06,SW,223,6.0,6.0,66,0.00,CLR,,0.00,969.0,WeatherDisplay:10.37,2013-07-03 18:05:00,
2013-07-03 14:10:00,81.3,68.9,30.05,West,265,5.0,5.0,66,0.00,CLR,,0.00,970.0,WeatherDisplay:10.37,2013-07-03 18:10:00,
2013-07-03 14:15:00,81.2,67.4,30.05,West,269,4.6,4.6,63,0.00,CLR,,0.00,1027.0,WeatherDisplay:10.37,2013-07-03 18:15:00,
2013-07-03 14:20:00,80.7,67.8,30.05,SSW,210,8.1,8.1,65,0.00,CLR,,0.00,1051.0,WeatherDisplay:10.37,2013-07-03 18:20:00,
2013-07-03 14:25:00,80.9,66.7,30.05,SW,215,9.2,9.2,62,0.00,CLR,,0.00,986.0,WeatherDisplay:10.37,2013-07-03 18:25:00,
2013-07-03 14:30:00,81.0,67.2,30.04,SW,223,5.0,5.0,63,0.00,CLR,,0.00,1083.0,WeatherDisplay:10.37,2013-07-03 18:30:00,
2013-07-03 14:35:00,81.1,67.3,30.05,SW,221,10.4,10.4,63,0.00,CLR,,0.00,1092.0,WeatherDisplay:10.37,2013-07-03 18:35:00,
2013-07-03 14:41:00,81.0,67.2,30.05,WSW,244,7.0,7.0,63,0.00,SCT,,0.00,294.0,WeatherDisplay:10.37,2013-07-03 18:41:00,
2013-07-03 14:46:00,81.5,68.1,30.05,SSW,207,12.7,12.7,64,0.00,CLR,,0.00,1085.0,WeatherDisplay:10.37,2013-07-03 18:46:00,
2013-07-03 14:51:00,81.3,66.6,30.04,SSW,213,11.5,11.5,61,0.00,BKN,,0.00,223.0,WeatherDisplay:10.37,2013-07-03 18:51:00,
2013-07-03 14:56:00,80.6,67.3,30.04,SSW,207,10.4,10.4,64,0.00,BKN,,0.00,311.0,WeatherDisplay:10.37,2013-07-03 18:56:00,
2013-07-03 15:02:00,80.9,67.1,30.04,SW,228,9.2,9.2,63,0.00,CLR,,0.00,288.0,WeatherDisplay:10.37,2013-07-03 19:02:00,
2013-07-03 15:07:00,81.2,66.9,30.04,SW,221,3.5,3.5,62,0.00,CLR,,0.00,988.0,WeatherDisplay:10.37,2013-07-03 19:07:00,
2013-07-03 15:12:00,81.0,65.8,30.04,WSW,253,11.5,11.5,60,0.00,BKN,,0.00,181.0,WeatherDisplay:10.37,2013-07-03 19:12:00,
2013-07-03 15:17:00,80.5,66.3,30.04,South,169,9.2,9.2,62,0.00,BKN,,0.00,255.0,WeatherDisplay:10.37,2013-07-03 19:17:00,
2013-07-03 15:22:00,80.5,66.3,30.04,WSW,253,9.2,9.2,62,0.00,BKN,,0.00,265.0,WeatherDisplay:10.37,2013-07-03 19:22:00,
2013-07-03 15:29:00,81.3,67.5,30.03,WSW,240,8.1,8.1,63,0.00,CLR,,0.00,988.0,WeatherDisplay:10.37,2013-07-03 19:29:00,
2013-07-03 15:34:00,81.9,67.6,30.03,SW,235,3.5,3.5,62,0.00,CLR,,0.00,925.0,WeatherDisplay:10.37,2013-07-03 19:34:00,
2013-07-03 15:39:00,82.4,66.1,30.03,South,190,8.0,8.0,58,0.00,CLR,,0.00,937.0,WeatherDisplay:10.37,2013-07-03 19:39:00,
2013-07-03 15:44:00,82.4,66.1,30.03,South,182,6.9,6.9,58,0.00,CLR,,0.00,918.0,WeatherDisplay:10.37,2013-07-03 19:44:00,
2013-07-03 15:49:00,82.3,67.0,30.03,SSW,207,8.1,8.1,60,0.00,CLR,,0.00,1074.0,WeatherDisplay:10.37,2013-07-03 19:49:00,
2013-07-03 15:54:00,82.3,66.5,30.03,WSW,244,9.2,9.2,59,0.00,BKN,,0.00,364.0,WeatherDisplay:10.37,2013-07-03 19:54:00,
2013-07-03 16:00:00,82.2,67.4,30.04,SW,225,2.0,10.0,61,0.00,CLR,,0.00,1021.0,WeatherDisplay:10.37,2013-07-03 20:00:00,
2013-07-03 16:05:00,82.6,66.8,30.03,SW,215,7.0,12.0,59,0.00,CLR,,0.00,1028.0,WeatherDisplay:10.37,2013-07-03 20:05:00,
2013-07-03 16:10:00,82.1,66.4,30.04,SW,224,3.0,9.0,59,0.00,BKN,,0.00,230.0,WeatherDisplay:10.37,2013-07-03 20:10:00,
2013-07-03 16:15:00,81.6,66.8,30.03,SW,234,6.9,6.9,61,0.00,BKN,,0.00,287.0,WeatherDisplay:10.37,2013-07-03 20:15:00,
2013-07-03 16:20:00,81.8,66.6,30.03,WSW,249,6.9,6.9,60,0.00,CLR,,0.00,846.0,WeatherDisplay:10.37,2013-07-03 20:20:00,
2013-07-03 16:25:00,81.7,66.5,30.03,SW,229,8.1,8.1,60,0.00,BKN,,0.00,229.0,WeatherDisplay:10.37,2013-07-03 20:25:00,
2013-07-03 16:30:00,81.3,65.6,30.03,South,185,6.9,6.9,59,0.00,BKN,,0.00,204.0,WeatherDisplay:10.37,2013-07-03 20:30:00,
2013-07-03 16:35:00,80.9,65.2,30.03,South,187,6.9,6.9,59,0.00,BKN,,0.00,248.0,WeatherDisplay:10.37,2013-07-03 20:35:00,
2013-07-03 16:40:00,81.1,66.4,30.03,SSW,213,6.9,6.9,61,0.00,CLR,,0.00,823.0,WeatherDisplay:10.37,2013-07-03 20:40:00,
2013-07-03 16:45:00,81.1,65.4,30.03,SW,217,10.4,10.4,59,0.00,BKN,,0.00,278.0,WeatherDisplay:10.37,2013-07-03 20:45:00,
2013-07-03 16:51:00,81.0,65.3,30.03,SSW,201,4.6,4.6,59,0.00,SCT,,0.00,598.0,WeatherDisplay:10.37,2013-07-03 20:51:00,
2013-07-03 16:56:00,81.4,66.7,30.03,SSW,197,11.5,11.5,61,0.00,SCT,,0.00,534.0,WeatherDisplay:10.37,2013-07-03 20:56:00,
2013-07-03 17:01:00,81.8,65.6,30.02,SSW,212,8.1,8.1,58,0.00,SCT,,0.00,693.0,WeatherDisplay:10.37,2013-07-03 21:01:00,
2013-07-03 17:06:00,82.0,65.8,30.02,SSW,192,9.2,9.2,58,0.00,BKN,,0.00,457.0,WeatherDisplay:10.37,2013-07-03 21:06:00,
2013-07-03 17:11:00,81.8,65.6,30.02,South,184,10.4,10.4,58,0.00,BKN,,0.00,294.0,WeatherDisplay:10.37,2013-07-03 21:11:00,
2013-07-03 17:16:00,81.5,65.8,30.02,South,191,5.8,5.8,59,0.00,BKN,,0.00,369.0,WeatherDisplay:10.37,2013-07-03 21:16:00,
2013-07-03 17:21:00,81.4,66.2,30.02,SSW,212,8.0,8.0,60,0.00,BKN,,0.00,475.0,WeatherDisplay:10.37,2013-07-03 21:21:00,
2013-07-03 17:26:00,81.3,64.6,30.02,South,187,11.5,11.5,57,0.00,BKN,,0.00,455.0,WeatherDisplay:10.37,2013-07-03 21:26:00,
2013-07-03 17:31:00,81.1,64.9,30.02,South,185,11.5,11.5,58,0.00,BKN,,0.00,338.0,WeatherDisplay:10.37,2013-07-03 21:31:00,
2013-07-03 17:36:00,80.9,64.2,30.03,South,170,9.2,9.2,57,0.00,BKN,,0.00,278.0,WeatherDisplay:10.37,2013-07-03 21:36:00,
2013-07-03 17:41:00,80.6,64.5,30.02,South,188,8.0,8.0,58,0.00,BKN,,0.00,343.0,WeatherDisplay:10.37,2013-07-03 21:41:00,
2013-07-03 17:47:00,80.3,64.7,30.02,South,182,8.1,8.1,59,0.00,BKN,,0.00,301.0,WeatherDisplay:10.37,2013-07-03 21:47:00,
2013-07-03 17:52:00,80.3,65.1,30.02,South,175,6.9,6.9,60,0.00,BKN,,0.00,246.0,WeatherDisplay:10.37,2013-07-03 21:52:00,
2013-07-03 17:57:00,80.3,65.1,30.02,SSW,209,5.8,5.8,60,0.00,BKN,,0.00,355.0,WeatherDisplay:10.37,2013-07-03 21:57:00,
2013-07-03 18:02:00,80.4,65.2,30.02,SSW,201,5.0,5.0,60,0.00,BKN,,0.00,533.0,WeatherDisplay:10.37,2013-07-03 22:02:00,
2013-07-03 18:07:00,80.7,65.5,30.02,South,184,6.9,6.9,60,0.00,BKN,,0.00,459.0,WeatherDisplay:10.37,2013-07-03 22:07:00,
2013-07-03 18:12:00,81.0,65.8,30.01,SSW,203,6.9,6.9,60,0.00,BKN,,0.00,373.0,WeatherDisplay:10.37,2013-07-03 22:12:00,
2013-07-03 18:17:00,81.0,65.8,30.01,South,188,8.1,8.1,60,0.00,BKN,,0.00,332.0,WeatherDisplay:10.37,2013-07-03 22:17:00,
2013-07-03 18:24:00,80.6,65.4,30.01,SSE,158,3.5,3.5,60,0.00,BKN,,0.00,267.0,WeatherDisplay:10.37,2013-07-03 22:24:00,
2013-07-03 18:30:00,80.3,65.6,30.01,South,181,5.0,7.0,61,0.00,BKN,,0.00,260.0,WeatherDisplay:10.37,2013-07-03 22:30:00,
2013-07-03 18:35:00,80.2,66.5,30.01,South,190,2.0,7.0,63,0.00,BKN,,0.00,251.0,WeatherDisplay:10.37,2013-07-03 22:35:00,
2013-07-03 18:40:00,79.9,65.2,30.01,SSW,196,9.2,9.2,61,0.00,BKN,,0.00,309.0,WeatherDisplay:10.37,2013-07-03 22:40:00,
2013-07-03 18:45:00,79.9,66.2,30.01,SSE,166,6.9,6.9,63,0.00,BKN,,0.00,315.0,WeatherDisplay:10.37,2013-07-03 22:45:00,
2013-07-03 18:50:00,80.0,65.8,30.01,South,186,3.0,7.0,62,0.00,BKN,,0.00,281.0,WeatherDisplay:10.37,2013-07-03 22:50:00,
2013-07-03 18:55:00,79.9,66.2,30.01,South,184,5.8,5.8,63,0.00,BKN,,0.00,193.0,WeatherDisplay:10.37,2013-07-03 22:55:00,
2013-07-03 19:00:00,79.9,66.6,30.01,SSW,211,6.0,6.0,64,0.00,BKN,,0.00,304.0,WeatherDisplay:10.37,2013-07-03 23:00:00,
2013-07-03 19:06:00,79.8,66.1,30.01,SSW,205,8.1,8.1,63,0.00,BKN,,0.00,179.0,WeatherDisplay:10.37,2013-07-03 23:06:00,
2013-07-03 19:11:00,79.7,66.4,30.01,South,178,6.0,6.0,64,0.00,BKN,,0.00,162.0,WeatherDisplay:10.37,2013-07-03 23:11:00,
2013-07-03 19:16:00,79.5,66.7,30.01,South,188,8.0,8.0,65,0.00,BKN,,0.00,146.0,WeatherDisplay:10.37,2013-07-03 23:16:00,
2013-07-03 19:21:00,79.3,66.5,30.01,SW,223,6.9,6.9,65,0.00,BKN,,0.00,160.0,WeatherDisplay:10.37,2013-07-03 23:21:00,
2013-07-03 19:26:00,79.2,67.3,30.01,South,184,3.5,3.5,67,0.00,BKN,,0.00,158.0,WeatherDisplay:10.37,2013-07-03 23:26:00,
2013-07-03 19:32:00,79.2,67.7,30.01,South,180,3.5,3.5,68,0.00,BKN,,0.00,127.0,WeatherDisplay:10.37,2013-07-03 23:32:00,
2013-07-03 19:37:00,79.0,66.7,30.01,SSW,204,5.0,5.0,66,0.00,BKN,,0.00,105.0,WeatherDisplay:10.37,2013-07-03 23:37:00,
2013-07-03 19:43:00,78.8,67.3,30.01,South,182,3.5,3.5,68,0.00,BKN,,0.00,93.0,WeatherDisplay:10.37,2013-07-03 23:43:00,
2013-07-03 19:48:00,78.6,67.2,30.01,South,184,2.3,2.3,68,0.00,BKN,,0.00,81.0,WeatherDisplay:10.37,2013-07-03 23:48:00,
2013-07-03 19:53:00,78.5,67.1,30.01,South,178,3.5,3.5,68,0.00,BKN,,0.00,76.0,WeatherDisplay:10.37,2013-07-03 23:53:00,
2013-07-03 19:58:00,78.4,68.2,30.01,South,180,3.5,3.5,71,0.00,BKN,,0.00,77.0,WeatherDisplay:10.37,2013-07-03 23:58:00,
2013-07-03 20:03:00,78.1,67.5,30.01,South,180,2.0,2.0,70,0.00,BKN,,0.00,77.0,WeatherDisplay:10.37,2013-07-04 00:03:00,
2013-07-03 20:08:00,78.0,67.4,30.01,South,181,3.5,3.5,70,0.00,BKN,,0.00,76.0,WeatherDisplay:10.37,2013-07-04 00:08:00,
2013-07-03 20:13:00,78.0,67.4,30.01,South,171,3.5,3.5,70,0.00,CLR,,0.00,49.0,WeatherDisplay:10.37,2013-07-04 00:13:00,
2013-07-03 20:19:00,77.8,67.2,30.01,SSW,194,3.5,3.5,70,0.00,CLR,,0.00,39.0,WeatherDisplay:10.37,2013-07-04 00:19:00,
2013-07-03 20:24:00,77.5,67.4,30.01,South,181,3.5,3.5,71,0.00,CLR,,0.00,39.0,WeatherDisplay:10.37,2013-07-04 00:24:00,
2013-07-03 20:29:00,77.3,67.6,30.02,South,173,4.6,4.6,72,0.00,CLR,,0.00,33.0,WeatherDisplay:10.37,2013-07-04 00:29:00,
2013-07-03 20:35:00,77.0,67.3,30.01,South,186,3.0,6.0,72,0.00,CLR,,0.00,35.0,WeatherDisplay:10.37,2013-07-04 00:35:00,
2013-07-03 20:40:00,76.9,67.2,30.01,SSE,163,3.5,3.5,72,0.00,CLR,,0.00,33.0,WeatherDisplay:10.37,2013-07-04 00:40:00,
2013-07-03 20:45:00,76.7,67.4,30.01,SSE,168,0.0,2.0,73,0.00,CLR,,0.00,23.0,WeatherDisplay:10.37,2013-07-04 00:45:00,
2013-07-03 20:50:00,76.5,67.2,30.01,South,179,2.0,6.0,73,0.00,CLR,,0.00,16.0,WeatherDisplay:10.37,2013-07-04 00:50:00,
2013-07-03 20:55:00,76.4,67.1,30.01,South,189,3.0,6.0,73,0.00,CLR,,0.00,12.0,WeatherDisplay:10.37,2013-07-04 00:55:00,
2013-07-03 21:00:00,76.4,67.1,30.02,South,191,3.0,6.0,73,0.00,CLR,,0.00,9.0,WeatherDisplay:10.37,2013-07-04 01:00:00,
2013-07-03 21:05:00,76.3,67.0,30.01,South,191,5.0,7.0,73,0.00,CLR,,0.00,5.0,WeatherDisplay:10.37,2013-07-04 01:05:00,
2013-07-03 21:10:00,76.2,67.3,30.02,SSW,192,1.0,6.0,74,0.00,CLR,,0.00,0.0,WeatherDisplay:10.37,2013-07-04 01:10:00,
2013-07-03 21:15:00,76.1,67.2,30.02,South,189,3.0,5.0,74,0.00,CLR,,0.00,0.0,WeatherDisplay:10.37,2013-07-04 01:15:00,
2013-07-03 21:21:00,75.8,67.3,30.02,South,189,4.6,4.6,75,0.00,CLR,,0.00,0.0,WeatherDisplay:10.37,2013-07-04 01:21:00,
2013-07-03 21:26:00,75.6,67.1,30.02,SSE,165,3.5,3.5,75,0.00,CLR,,0.00,0.0,WeatherDisplay:10.37,2013-07-04 01:26:00,
2013-07-03 21:31:00,75.3,67.2,30.02,South,182,3.5,3.5,76,0.00,CLR,,0.00,0.0,WeatherDisplay:10.37,2013-07-04 01:31:00,
2013-07-03 21:36:00,75.1,67.0,30.03,South,171,2.3,2.3,76,0.00,CLR,,0.00,0.0,WeatherDisplay:10.37,2013-07-04 01:36:00,
2013-07-03 21:41:00,74.8,67.1,30.03,South,173,3.5,3.5,77,0.00,CLR,,0.00,0.0,WeatherDisplay:10.37,2013-07-04 01:41:00,
2013-07-03 21:46:00,74.7,67.0,30.03,SSW,203,4.6,4.6,77,0.00,CLR,,0.00,0.0,WeatherDisplay:10.37,2013-07-04 01:46:00,
2013-07-03 21:51:00,74.6,66.9,30.03,South,188,5.8,5.8,77,0.00,CLR,,0.00,0.0,WeatherDisplay:10.37,2013-07-04 01:51:00,
2013-07-03 21:56:00,74.7,67.0,30.03,South,181,4.0,4.0,77,0.00,CLR,,0.00,0.0,WeatherDisplay:10.37,2013-07-04 01:56:00,
2013-07-03 22:01:00,74.5,66.8,30.03,SSW,201,6.9,6.9,77,0.00,CLR,,0.00,0.0,WeatherDisplay:10.37,2013-07-04 02:01:00,
2013-07-03 22:06:00,74.4,66.7,30.04,SSW,206,4.6,4.6,77,0.00,CLR,,0.00,0.0,WeatherDisplay:10.37,2013-07-04 02:06:00,
2013-07-03 22:11:00,74.4,66.7,30.04,SSW,208,3.5,3.8,77,0.00,CLR,,0.00,0.0,WeatherDisplay:10.37,2013-07-04 02:11:00,
2013-07-03 22:17:00,74.4,66.7,30.04,SSW,206,4.6,4.6,77,0.00,CLR,,0.00,0.0,WeatherDisplay:10.37,2013-07-04 02:17:00,
2013-07-03 22:22:00,74.4,66.7,30.04,South,187,4.0,4.0,77,0.00,CLR,,0.00,0.0,WeatherDisplay:10.37,2013-07-04 02:22:00,
2013-07-03 22:27:00,74.3,66.6,30.04,South,180,5.8,5.8,77,0.00,CLR,,0.00,0.0,WeatherDisplay:10.37,2013-07-04 02:27:00,
2013-07-03 22:32:00,74.3,66.6,30.05,South,173,4.0,4.0,77,0.00,CLR,,0.00,0.0,WeatherDisplay:10.37,2013-07-04 02:32:00,
2013-07-03 22:37:00,74.1,66.8,30.05,South,177,3.5,3.5,78,0.00,CLR,,0.00,0.0,WeatherDisplay:10.37,2013-07-04 02:37:00,
2013-07-03 22:42:00,73.9,66.6,30.04,SSE,163,2.3,2.3,78,0.00,CLR,,0.00,0.0,WeatherDisplay:10.37,2013-07-04 02:42:00,
2013-07-03 22:47:00,73.5,66.6,30.04,SSE,162,0.0,0.0,79,0.00,CLR,,0.00,0.0,WeatherDisplay:10.37,2013-07-04 02:47:00,
2013-07-03 22:52:00,73.2,66.7,30.04,SSE,162,0.0,0.0,80,0.00,CLR,,0.00,0.0,WeatherDisplay:10.37,2013-07-04 02:52:00,
2013-07-03 22:57:00,72.9,66.7,30.04,SSE,162,2.3,2.3,81,0.00,CLR,,0.00,0.0,WeatherDisplay:10.37,2013-07-04 02:57:00,
2013-07-03 23:02:00,72.6,66.4,30.04,SSE,162,2.3,2.3,81,0.00,CLR,,0.00,0.0,WeatherDisplay:10.37,2013-07-04 03:02:00,
2013-07-03 23:08:00,72.5,66.7,30.04,SSE,162,3.5,3.5,82,0.00,CLR,,0.00,0.0,WeatherDisplay:10.37,2013-07-04 03:08:00,
2013-07-03 23:13:00,72.5,66.7,30.04,SSE,163,2.3,2.3,82,0.00,CLR,,0.00,0.0,WeatherDisplay:10.37,2013-07-04 03:13:00,
2013-07-03 23:18:00,72.5,67.0,30.04,South,189,3.5,3.5,83,0.00,CLR,,0.00,0.0,WeatherDisplay:10.37,2013-07-04 03:18:00,
2013-07-03 23:23:00,72.5,67.0,30.05,South,184,4.0,4.0,83,0.00,CLR,,0.00,0.0,WeatherDisplay:10.37,2013-07-04 03:23:00,
2013-07-03 23:28:00,72.6,67.1,30.05,South,188,5.8,5.8,83,0.00,CLR,,0.00,0.0,WeatherDisplay:10.37,2013-07-04 03:28:00,
2013-07-03 23:33:00,72.6,67.1,30.05,South,171,3.5,3.5,83,0.00,CLR,,0.00,0.0,WeatherDisplay:10.37,2013-07-04 03:33:00,
2013-07-03 23:38:00,72.7,67.2,30.05,SSW,194,3.5,3.5,83,0.00,CLR,,0.00,0.0,WeatherDisplay:10.37,2013-07-04 03:38:00,
2013-07-03 23:44:00,72.9,67.4,30.05,South,190,4.6,4.6,83,0.00,CLR,,0.00,0.0,WeatherDisplay:10.37,2013-07-04 03:44:00,
2013-07-03 23:49:00,73.0,67.5,30.05,SSW,202,3.5,3.5,83,0.00,CLR,,0.00,0.0,WeatherDisplay:10.37,2013-07-04 03:49:00,
2013-07-03 23:54:00,73.0,67.5,30.05,SW,219,5.8,5.8,83,0.00,CLR,,0.00,0.0,WeatherDisplay:10.37,2013-07-04 03:54:00,